Time;durP1;ratioP1;P1;durP2;ratioP2;P2;SDS_P1;SDS_P2;PMS_P1;PMS_P2;Temp;Humidity;BMP_temperature;BMP_pressure;BME280_temperature;BME280_humidity;BME280_pressure;Samples;Min_cycle;Max_cycle;Signal;HPM_P1;HPM_P2
2023/03/12 00:00:14;;;;;;;;;;;;;;;13.88;34.78;97547.53;5074561;28;19917;-82
2023/03/12 00:02:39;;;;;;;;;;;;;;;13.82;34.76;97553.44;5057319;28;19920;-85
2023/03/12 00:05:05;;;;;;;;;;;;;;;13.77;34.44;97553.09;5075514;28;19923;-83
2023/03/12 00:07:30;;;;;;;;;;;;;;;13.73;34.04;97552.63;5057011;28;19938;-87
2023/03/12 00:09:55;;;;;;;;;;;;;;;13.70;34.03;97552.97;5057295;28;19916;-83
2023/03/12 00:12:21;;;;;;;;;;;;;;;13.65;33.73;97550.03;5075802;28;19916;-82
2023/03/12 00:14:46;;;;;;;;;;;;;;;13.59;33.78;97550.69;5073948;28;20011;-90
2023/03/12 00:17:11;;;;;;;;;;;;;;;13.55;33.49;97554.59;5075549;28;19966;-87
2023/03/12 00:19:36;;;;;;;;;;;;;;;13.50;33.39;97556.91;5075368;28;19917;-85
2023/03/12 00:22:02;;;;;;;;;;;;;;;13.45;33.46;97567.88;5075318;28;20302;-84
2023/03/12 00:24:27;;;;;;;;;;;;;;;13.41;33.26;97563.13;5074971;28;19954;-87
2023/03/12 00:26:52;;;;;;;;;;;;;;;13.37;33.40;97571.31;5074344;28;20066;-86
2023/03/12 00:29:18;;;;;;;;;;;;;;;13.33;33.24;97570.03;5074773;28;19917;-85
2023/03/12 00:31:43;;;;;;;;;;;;;;;13.31;33.31;97565.88;5057169;28;19963;-82
2023/03/12 00:34:08;;;;;;;;;;;;;;;13.26;33.29;97566.38;5075005;28;19923;-82
2023/03/12 00:36:34;;;;;;;;;;;;;;;13.22;33.21;97567.69;5056578;28;19926;-81
2023/03/12 00:38:59;;;;;;;;;;;;;;;13.18;33.12;97572.41;5074752;28;20075;-82
2023/03/12 00:41:24;;;;;;;;;;;;;;;13.14;32.97;97572.91;5056444;28;19955;-82
2023/03/12 00:43:50;;;;;;;;;;;;;;;13.11;33.19;97567.97;5075541;28;19956;-83
2023/03/12 00:46:15;;;;;;;;;;;;;;;13.07;32.88;97564.88;5056854;28;19982;-81
2023/03/12 00:48:40;;;;;;;;;;;;;;;13.03;33.25;97567.00;5074847;28;19924;-81
2023/03/12 00:51:06;;;;;;;;;;;;;;;13.00;33.02;97554.22;5056628;28;19923;-80
2023/03/12 00:53:31;;;;;;;;;;;;;;;12.96;32.82;97557.34;5056984;28;19952;-81
2023/03/12 00:55:56;;;;;;;;;;;;;;;12.92;32.86;97553.38;5074679;28;19916;-82
2023/03/12 00:58:22;;;;;;;;;;;;;;;12.87;32.56;97556.47;5073997;28;19916;-84
2023/03/12 01:00:47;;;;;;;;;;;;;;;12.83;32.51;97555.19;5074810;28;19917;-81
2023/03/12 01:03:12;;;;;;;;;;;;;;;12.81;32.68;97546.69;5082338;28;19973;-79
2023/03/12 01:05:39;;;;;;;;;;;;;;;12.78;32.53;97547.00;5058450;28;20289;-78
2023/03/12 01:08:05;;;;;;;;;;;;;;;12.73;32.08;97539.63;5076534;28;19916;-78
2023/03/12 01:10:30;;;;;;;;;;;;;;;12.71;32.60;97541.56;5095348;28;19923;-77
2023/03/12 01:12:56;;;;;;;;;;;;;;;12.67;32.58;97538.44;5095048;28;19916;-74
2023/03/12 01:15:21;;;;;;;;;;;;;;;12.66;32.65;97541.22;5060022;28;20311;-76
2023/03/12 01:17:46;;;;;;;;;;;;;;;12.62;32.22;97559.06;5095060;28;19920;-76
2023/03/12 01:20:12;;;;;;;;;;;;;;;12.61;32.50;97559.22;5077068;28;19938;-76
2023/03/12 01:22:37;;;;;;;;;;;;;;;12.56;32.34;97556.25;5076837;28;20322;-77
2023/03/12 01:25:02;;;;;;;;;;;;;;;12.54;32.22;97556.41;5095107;28;20390;-76
2023/03/12 01:27:28;;;;;;;;;;;;;;;12.56;32.43;97553.63;5076873;28;20267;-77
2023/03/12 01:29:53;;;;;;;;;;;;;;;12.55;32.13;97549.38;5076297;28;19920;-77
2023/03/12 01:32:19;;;;;;;;;;;;;;;12.53;32.19;97552.16;5076681;28;20345;-77
2023/03/12 01:34:44;;;;;;;;;;;;;;;12.52;32.15;97549.69;5094789;28;19939;-77
2023/03/12 01:37:09;;;;;;;;;;;;;;;12.51;31.89;97558.50;5094474;28;20345;-77
2023/03/12 01:39:35;;;;;;;;;;;;;;;12.46;32.29;97551.13;5095066;28;19916;-77
2023/03/12 01:42:00;;;;;;;;;;;;;;;12.43;32.16;97549.66;5076603;28;19916;-77
2023/03/12 01:44:26;;;;;;;;;;;;;;;12.41;31.92;97558.63;5060046;28;19924;-78
2023/03/12 01:46:51;;;;;;;;;;;;;;;12.40;32.10;97563.06;5094519;28;19956;-77
2023/03/12 01:49:18;;;;;;;;;;;;;;;12.40;32.26;97570.91;5094475;28;20299;-77
2023/03/12 01:51:43;;;;;;;;;;;;;;;12.39;31.73;97571.88;5075922;28;19920;-77
2023/03/12 01:54:14;;;;;;;;;;;;;;;12.37;31.79;97570.41;5076906;28;19923;-77
2023/03/12 01:56:39;;;;;;;;;;;;;;;12.34;31.82;97582.00;5076185;28;20017;-77
2023/03/12 01:59:06;;;;;;;;;;;;;;;12.34;31.82;97587.25;5076354;28;19916;-77
2023/03/12 02:01:32;;;;;;;;;;;;;;;12.33;31.84;97580.34;5076467;28;19916;-77
2023/03/12 02:03:57;;;;;;;;;;;;;;;12.31;31.67;97598.81;5093336;28;19934;-76
2023/03/12 02:06:42;;;;;;;;;;;;;;;12.31;31.33;97613.72;5091784;28;19969;-77
2023/03/12 02:09:08;;;;;;;;;;;;;;;12.28;31.69;97606.16;5093228;28;19920;-77
2023/03/12 02:11:33;;;;;;;;;;;;;;;12.26;31.61;97613.38;5093203;28;19981;-77
2023/03/12 02:13:58;;;;;;;;;;;;;;;12.23;31.29;97603.22;5094375;28;20367;-77
2023/03/12 02:16:24;;;;;;;;;;;;;;;12.21;31.14;97605.97;5093104;28;19923;-77
2023/03/12 02:18:49;;;;;;;;;;;;;;;12.20;31.63;97601.72;5093189;28;20018;-76
2023/03/12 02:21:27;;;;;;;;;;;;;;;12.18;31.36;97608.09;5093036;28;19920;-76
2023/03/12 02:24:02;;;;;;;;;;;;;;;12.16;30.99;97621.31;5092997;28;19932;-76
2023/03/12 02:26:27;;;;;;;;;;;;;;;12.15;30.84;97611.81;5094030;28;20027;-77
2023/03/12 02:28:53;;;;;;;;;;;;;;;12.13;30.69;97630.28;5092893;28;20418;-76
2023/03/12 02:31:19;;;;;;;;;;;;;;;12.11;30.66;97624.41;5092895;28;20426;-77
2023/03/12 02:33:44;;;;;;;;;;;;;;;12.09;30.52;97634.19;5094122;28;19999;-77
2023/03/12 02:36:10;;;;;;;;;;;;;;;12.08;30.48;97629.94;5092884;28;19959;-77
2023/03/12 02:38:40;;;;;;;;;;;;;;;12.07;30.60;97637.94;5093265;28;20060;-77
2023/03/12 02:41:10;;;;;;;;;;;;;;;12.05;30.38;97635.47;5092844;28;19980;-76
2023/03/12 02:43:35;;;;;;;;;;;;;;;12.03;30.14;97655.72;5075655;28;19916;-76
2023/03/12 02:46:00;;;;;;;;;;;;;;;12.00;30.00;97657.81;5094277;28;19923;-76
2023/03/12 02:48:25;;;;;;;;;;;;;;;11.99;29.98;97664.03;5092410;28;19916;-77
2023/03/12 02:50:51;;;;;;;;;;;;;;;11.94;29.68;97654.03;5092520;28;19916;-78
2023/03/12 02:53:16;;;;;;;;;;;;;;;11.93;29.95;97661.03;5092518;28;19971;-77
2023/03/12 02:55:41;;;;;;;;;;;;;;;11.91;29.85;97665.59;5094081;28;20010;-78
2023/03/12 02:58:07;;;;;;;;;;;;;;;11.89;29.58;97691.06;5092094;28;19916;-76
2023/03/12 03:00:32;;;;;;;;;;;;;;;11.88;29.69;97686.81;5091982;28;19916;-76
2023/03/12 03:02:58;;;;;;;;;;;;;;;11.85;29.60;97696.75;5092495;28;19920;-77
2023/03/12 03:05:23;;;;;;;;;;;;;;;11.83;29.82;97698.69;5092140;28;20383;-76
2023/03/12 03:07:48;;;;;;;;;;;;;;;11.83;29.50;97683.00;5092148;28;19916;-76
2023/03/12 03:10:16;;;;;;;;;;;;;;;11.82;29.77;97697.06;5074951;28;20287;-76
2023/03/12 03:12:41;;;;;;;;;;;;;;;11.79;29.70;97697.34;5093195;28;19923;-77
2023/03/12 03:15:07;;;;;;;;;;;;;;;11.79;29.54;97705.19;5074869;28;19916;-77
2023/03/12 03:17:32;;;;;;;;;;;;;;;11.76;29.67;97706.31;5092839;28;19916;-77
2023/03/12 03:19:57;;;;;;;;;;;;;;;11.75;29.48;97713.34;5091410;28;20057;-77
2023/03/12 03:22:22;;;;;;;;;;;;;;;11.73;29.70;97712.66;5093304;28;19951;-76
2023/03/12 03:24:48;;;;;;;;;;;;;;;11.70;29.74;97714.75;5092719;28;20058;-77
2023/03/12 03:27:13;;;;;;;;;;;;;;;11.68;29.54;97721.91;5091906;28;20387;-76
2023/03/12 03:29:38;;;;;;;;;;;;;;;11.66;29.72;97729.91;5092392;28;20357;-77
2023/03/12 03:32:04;;;;;;;;;;;;;;;11.64;29.55;97737.09;5091835;28;19923;-76
2023/03/12 03:34:29;;;;;;;;;;;;;;;11.63;29.56;97745.06;5092368;28;19916;-77
2023/03/12 03:36:55;;;;;;;;;;;;;;;11.61;29.75;97752.22;5091617;28;19985;-77
2023/03/12 03:39:20;;;;;;;;;;;;;;;11.60;29.34;97764.47;5091800;28;20346;-77
2023/03/12 03:41:46;;;;;;;;;;;;;;;11.57;29.56;97757.78;5091390;28;19917;-77
2023/03/12 03:44:11;;;;;;;;;;;;;;;11.56;29.63;97758.72;5091274;28;19916;-77
2023/03/12 03:46:37;;;;;;;;;;;;;;;11.55;29.95;97757.06;5092769;28;19924;-77
2023/03/12 03:49:02;;;;;;;;;;;;;;;11.55;29.66;97762.31;5074684;28;19916;-77
2023/03/12 03:51:27;;;;;;;;;;;;;;;11.53;29.69;97759.03;5092016;28;19943;-77
2023/03/12 03:53:52;;;;;;;;;;;;;;;11.52;29.77;97769.63;5092780;28;19927;-77
2023/03/12 03:56:18;;;;;;;;;;;;;;;11.49;30.17;97765.50;5092608;28;20374;-77
2023/03/12 03:58:43;;;;;;;;;;;;;;;11.48;29.83;97760.41;5091463;28;19920;-77
2023/03/12 04:01:08;;;;;;;;;;;;;;;11.47;29.95;97770.06;5091476;28;19920;-77
2023/03/12 04:03:34;;;;;;;;;;;;;;;11.46;29.71;97778.06;5093124;28;19965;-76
2023/03/12 04:05:59;;;;;;;;;;;;;;;11.45;30.15;97786.84;5092574;28;19923;-77
2023/03/12 04:08:25;;;;;;;;;;;;;;;11.42;30.00;97790.59;5091335;28;19922;-76
2023/03/12 04:10:50;;;;;;;;;;;;;;;11.40;30.07;97798.56;5092545;28;19924;-75
2023/03/12 04:13:15;;;;;;;;;;;;;;;11.39;30.05;97802.16;5091334;28;19913;-76
2023/03/12 04:15:51;;;;;;;;;;;;;;;11.35;30.26;97792.97;5091626;28;19920;-76
2023/03/12 04:18:16;;;;;;;;;;;;;;;11.34;30.32;97808.78;5091364;28;19959;-76
2023/03/12 04:20:41;;;;;;;;;;;;;;;11.31;30.51;97817.72;5091408;28;20359;-76
2023/03/12 04:23:07;;;;;;;;;;;;;;;11.30;30.34;97817.88;5091061;28;19916;-76
2023/03/12 04:25:32;;;;;;;;;;;;;;;11.27;30.14;97818.16;5073998;28;20391;-76
2023/03/12 04:27:57;;;;;;;;;;;;;;;11.25;30.28;97813.06;5074104;28;19920;-75
2023/03/12 04:30:23;;;;;;;;;;;;;;;11.24;30.49;97814.03;5074031;28;20306;-75
2023/03/12 04:32:48;;;;;;;;;;;;;;;11.25;30.30;97814.88;5092152;28;20004;-76
2023/03/12 04:35:13;;;;;;;;;;;;;;;11.22;30.18;97814.19;5092258;28;20451;-74
2023/03/12 04:37:39;;;;;;;;;;;;;;;11.22;30.63;97811.56;5091154;28;19923;-75
2023/03/12 04:40:06;;;;;;;;;;;;;;;11.25;30.33;97818.31;5092284;28;20018;-75
2023/03/12 04:42:34;;;;;;;;;;;;;;;11.28;30.24;97819.81;5094693;28;20307;-75
2023/03/12 04:45:00;;;;;;;;;;;;;;;11.32;30.34;97826.38;5096548;28;19959;-75
2023/03/12 04:47:25;;;;;;;;;;;;;;;11.74;29.60;97812.84;5096147;28;19963;-75
2023/03/12 04:49:51;;;;;;;;;;;;;;;12.53;28.78;97808.69;5095995;28;19973;-75
2023/03/12 04:52:16;;;;;;;;;;;;;;;13.02;28.22;97814.22;5081012;28;19921;-77
2023/03/12 04:54:42;;;;;;;;;;;;;;;13.36;27.80;97820.47;5074321;28;20356;-75
2023/03/12 04:57:07;;;;;;;;;;;;;;;13.31;27.95;97823.53;5074191;28;19916;-76
2023/03/12 04:59:32;;;;;;;;;;;;;;;13.11;28.19;97845.72;5075435;28;19924;-75
2023/03/12 05:01:58;;;;;;;;;;;;;;;12.99;28.33;97853.03;5074228;28;19917;-76
2023/03/12 05:04:23;;;;;;;;;;;;;;;12.90;28.20;97859.19;5075252;28;20353;-75
2023/03/12 05:06:48;;;;;;;;;;;;;;;12.82;28.62;97852.94;5074075;28;19924;-76
2023/03/12 05:09:14;;;;;;;;;;;;;;;12.79;28.31;97850.59;5074949;28;19928;-75
2023/03/12 05:11:39;;;;;;;;;;;;;;;12.82;28.49;97854.69;5057243;28;19924;-76
2023/03/12 05:14:04;;;;;;;;;;;;;;;13.19;28.28;97864.94;5074010;28;19973;-76
2023/03/12 05:16:30;;;;;;;;;;;;;;;13.83;27.33;97863.78;5075283;28;20376;-76
2023/03/12 05:18:55;;;;;;;;;;;;;;;15.00;26.15;97877.72;5057413;28;20402;-76
2023/03/12 05:21:20;;;;;;;;;;;;;;;16.14;24.93;97880.16;5074961;28;19966;-75
2023/03/12 05:23:45;;;;;;;;;;;;;;;17.07;23.34;97886.22;5073949;28;19955;-75
2023/03/12 05:26:17;;;;;;;;;;;;;;;17.80;22.59;97884.59;5075435;28;20010;-74
2023/03/12 05:28:42;;;;;;;;;;;;;;;18.60;22.05;97885.50;5074876;28;19924;-74
2023/03/12 05:31:08;;;;;;;;;;;;;;;19.38;21.12;97897.13;5074734;28;19916;-75
2023/03/12 05:33:34;;;;;;;;;;;;;;;20.08;20.49;97910.31;5075056;28;20384;-74
2023/03/12 05:35:59;;;;;;;;;;;;;;;20.73;20.14;97905.38;5074884;28;19950;-75
2023/03/12 05:38:24;;;;;;;;;;;;;;;21.37;19.36;97903.94;5074714;28;19917;-75
2023/03/12 05:40:51;;;;;;;;;;;;;;;21.99;18.92;97903.59;5074786;28;19923;-75
2023/03/12 05:43:16;;;;;;;;;;;;;;;22.47;18.22;97913.00;5073632;28;19916;-76
2023/03/12 05:45:41;;;;;;;;;;;;;;;22.97;17.98;97918.38;5074762;28;20398;-76
2023/03/12 05:48:06;;;;;;;;;;;;;;;23.44;17.61;97932.13;5074347;28;20330;-75
2023/03/12 05:50:32;;;;;;;;;;;;;;;23.79;17.52;97938.75;5074840;28;19924;-75
2023/03/12 05:52:57;;;;;;;;;;;;;;;24.16;17.10;97936.91;5055870;28;19916;-76
2023/03/12 05:55:22;;;;;;;;;;;;;;;24.53;16.81;97928.03;5074283;28;19920;-75
2023/03/12 05:57:48;;;;;;;;;;;;;;;24.86;16.59;97930.22;5074164;28;20007;-76
2023/03/12 06:00:13;;;;;;;;;;;;;;;24.99;16.56;97921.19;5073175;28;20079;-77
2023/03/12 06:02:39;;;;;;;;;;;;;;;25.26;16.11;97928.75;5072992;28;19917;-76
2023/03/12 06:05:04;;;;;;;;;;;;;;;25.52;15.85;97924.00;5055898;28;19975;-78
2023/03/12 06:07:29;;;;;;;;;;;;;;;25.75;15.54;97912.50;5071860;28;19970;-76
2023/03/12 06:09:55;;;;;;;;;;;;;;;25.94;15.10;97918.50;5072665;28;19991;-76
2023/03/12 06:12:20;;;;;;;;;;;;;;;26.10;15.37;97933.81;5073362;28;19916;-76
2023/03/12 06:14:45;;;;;;;;;;;;;;;26.29;15.07;97928.28;5073810;28;19975;-75
2023/03/12 06:17:11;;;;;;;;;;;;;;;26.46;15.18;97941.72;5072936;28;20372;-74
2023/03/12 06:19:36;;;;;;;;;;;;;;;26.61;14.48;97919.78;5072828;28;19921;-76
2023/03/12 06:22:01;;;;;;;;;;;;;;;26.73;14.48;97944.66;5072691;28;19917;-76
2023/03/12 06:24:27;;;;;;;;;;;;;;;26.86;14.46;97943.53;5072660;28;19947;-77
2023/03/12 06:26:52;;;;;;;;;;;;;;;27.01;14.32;97950.97;5073998;28;19963;-78
2023/03/12 06:29:17;;;;;;;;;;;;;;;27.20;14.55;97954.22;5073067;28;19917;-76
2023/03/12 06:31:43;;;;;;;;;;;;;;;27.34;14.46;97982.38;5073590;28;20268;-77
2023/03/12 06:34:09;;;;;;;;;;;;;;;27.53;14.01;97982.94;5073545;28;19917;-74
2023/03/12 06:36:34;;;;;;;;;;;;;;;27.69;13.88;97988.50;5073686;28;20451;-76
2023/03/12 06:38:59;;;;;;;;;;;;;;;27.91;13.91;97975.94;5073262;28;20027;-77
2023/03/12 06:41:25;;;;;;;;;;;;;;;28.12;13.66;97990.44;5073860;28;20371;-78
2023/03/12 06:43:50;;;;;;;;;;;;;;;28.35;13.67;97996.63;5055657;28;20025;-77
2023/03/12 06:46:16;;;;;;;;;;;;;;;28.27;18.27;97995.19;5056324;28;19917;-87
2023/03/12 06:48:42;;;;;;;;;;;;;;;28.06;16.52;97986.06;5084923;28;19992;-86
2023/03/12 06:51:07;;;;;;;;;;;;;;;27.91;16.84;97981.31;5077612;28;19952;-79
2023/03/12 06:53:33;;;;;;;;;;;;;;;28.04;16.66;97987.38;5088428;28;19985;-84
2023/03/12 06:55:58;;;;;;;;;;;;;;;28.18;16.61;98012.81;5071101;28;20633;-80
2023/03/12 06:58:23;;;;;;;;;;;;;;;28.30;16.80;98012.66;5090952;28;20373;-79
2023/03/12 07:00:49;;;;;;;;;;;;;;;28.40;16.12;98017.34;5072511;28;20349;-80
2023/03/12 07:03:14;;;;;;;;;;;;;;;28.39;14.86;98029.16;5087310;28;19967;-73
2023/03/12 07:05:42;;;;;;;;;;;;;;;28.42;14.51;98034.81;5072763;28;19927;-79
2023/03/12 07:08:07;;;;;;;;;;;;;;;28.59;15.53;98040.16;5092413;28;20018;-82
2023/03/12 07:10:35;;;;;;;;;;;;;;;28.55;15.27;98048.94;5074598;28;19970;-89
2023/03/12 07:13:01;;;;;;;;;;;;;;;29.00;15.46;98077.38;5074265;28;20303;-79
2023/03/12 07:15:26;;;;;;;;;;;;;;;29.29;15.36;98087.88;5057421;28;19916;-80
2023/03/12 07:17:52;;;;;;;;;;;;;;;29.84;14.89;98077.88;5074002;28;19916;-83
2023/03/12 07:20:18;;;;;;;;;;;;;;;30.23;14.90;98094.50;5074978;28;19920;-77
2023/03/12 07:22:43;;;;;;;;;;;;;;;30.55;15.09;98092.81;5098064;28;19920;-80
2023/03/12 07:25:09;;;;;;;;;;;;;;;30.63;15.96;98103.06;5055403;28;19929;-78
2023/03/12 07:27:34;;;;;;;;;;;;;;;30.67;16.41;98104.19;5070671;28;19916;-79
2023/03/12 07:29:59;;;;;;;;;;;;;;;30.77;15.66;98112.28;5054296;28;19916;-77
2023/03/12 07:32:25;;;;;;;;;;;;;;;31.00;14.42;98121.81;5070989;28;20379;-78
2023/03/12 07:34:50;;;;;;;;;;;;;;;31.10;15.42;98123.72;5069675;28;19920;-77
2023/03/12 07:37:15;;;;;;;;;;;;;;;31.25;14.63;98135.63;5070905;28;19923;-76
2023/03/12 07:39:42;;;;;;;;;;;;;;;31.33;14.08;98135.91;5055494;28;19917;-85
2023/03/12 07:42:08;;;;;;;;;;;;;;;31.35;14.16;98152.63;5074701;28;19964;-84
2023/03/12 07:44:35;;;;;;;;;;;;;;;31.55;13.72;98140.31;5072931;28;19920;-83
2023/03/12 07:47:00;;;;;;;;;;;;;;;31.73;13.29;98152.44;5072326;28;20051;-84
2023/03/12 07:49:26;;;;;;;;;;;;;;;31.85;13.31;98155.69;5070929;28;19962;-82
2023/03/12 07:51:51;;;;;;;;;;;;;;;31.97;13.53;98135.69;5072131;28;20410;-85
2023/03/12 07:54:17;;;;;;;;;;;;;;;32.06;12.99;98152.97;5070873;28;19979;-89
2023/03/12 07:56:42;;;;;;;;;;;;;;;32.14;13.00;98141.63;5070641;28;19923;-87
2023/03/12 07:59:07;;;;;;;;;;;;;;;32.24;12.87;98160.50;5071384;28;19924;-89
2023/03/12 08:01:33;;;;;;;;;;;;;;;32.38;12.95;98149.16;5054874;28;19921;-90
2023/03/12 08:03:58;;;;;;;;;;;;;;;32.49;12.75;98158.84;5035484;28;19917;-88
2023/03/12 08:06:23;;;;;;;;;;;;;;;32.68;12.56;98156.38;5052001;28;19920;-89
2023/03/12 08:08:49;;;;;;;;;;;;;;;32.71;12.86;98160.44;5068578;28;19916;-84
2023/03/12 08:11:14;;;;;;;;;;;;;;;32.82;12.71;98170.91;5067600;28;19917;-84
2023/03/12 08:13:39;;;;;;;;;;;;;;;32.82;12.34;98167.41;5052176;28;20357;-84
2023/03/12 08:16:05;;;;;;;;;;;;;;;32.97;12.48;98170.03;5060322;28;20434;-83
2023/03/12 08:18:30;;;;;;;;;;;;;;;33.05;14.15;98179.47;5078765;28;19978;-85
2023/03/12 08:20:55;;;;;;;;;;;;;;;32.54;13.72;98169.63;5079920;28;20409;-88
2023/03/12 08:23:21;;;;;;;;;;;;;;;32.18;14.18;98175.13;5084880;28;19916;-92
2023/03/12 08:25:46;;;;;;;;;;;;;;;31.86;13.58;98178.06;5097687;28;19927;-87
2023/03/12 08:28:12;;;;;;;;;;;;;;;31.46;12.34;98166.16;5106111;28;20311;-91
2023/03/12 08:30:37;;;;;;;;;;;;;;;31.26;13.41;98185.78;5105014;28;19917;-87
2023/03/12 08:33:02;;;;;;;;;;;;;;;31.07;13.38;98183.56;5106853;28;19906;-90
2023/03/12 08:35:28;;;;;;;;;;;;;;;30.76;12.66;98186.13;5092109;28;20373;-89
2023/03/12 08:37:55;;;;;;;;;;;;;;;30.58;12.84;98208.09;5105094;28;19927;-92
2023/03/12 08:40:21;;;;;;;;;;;;;;;30.48;14.10;98203.47;5086343;28;19923;-85
2023/03/12 08:42:46;;;;;;;;;;;;;;;30.34;14.15;98199.56;5095253;28;19916;-83
2023/03/12 08:45:11;;;;;;;;;;;;;;;30.22;14.95;98205.97;5094908;28;20394;-84
2023/03/12 08:47:40;;;;;;;;;;;;;;;30.21;15.29;98204.34;5102557;28;20014;-84
2023/03/12 08:50:06;;;;;;;;;;;;;;;30.13;15.29;98213.69;5096416;28;19916;-85
2023/03/12 08:52:31;;;;;;;;;;;;;;;30.08;15.87;98215.56;5073599;28;19917;-83
2023/03/12 08:54:56;;;;;;;;;;;;;;;30.12;16.57;98219.34;5056905;28;19967;-85
2023/03/12 08:57:21;;;;;;;;;;;;;;;30.15;14.75;98218.81;5073762;28;19965;-85
2023/03/12 08:59:47;;;;;;;;;;;;;;;30.26;15.26;98217.03;5056450;28;19916;-85
2023/03/12 09:02:12;;;;;;;;;;;;;;;30.20;15.81;98213.47;5073472;28;20422;-84
2023/03/12 09:04:37;;;;;;;;;;;;;;;29.56;13.29;98216.94;5074176;28;19921;-85
2023/03/12 09:07:03;;;;;;;;;;;;;;;29.76;13.97;98217.13;5079640;28;19917;-88
2023/03/12 09:09:28;;;;;;;;;;;;;;;29.84;13.77;98210.50;5056985;28;19927;-84
2023/03/12 09:11:54;;;;;;;;;;;;;;;30.11;13.58;98221.22;5057015;28;20012;-82
2023/03/12 09:14:19;;;;;;;;;;;;;;;30.24;13.99;98216.47;5057433;28;19963;-80
2023/03/12 09:16:44;;;;;;;;;;;;;;;30.33;15.29;98214.94;5061837;28;19959;-88
2023/03/12 09:19:10;;;;;;;;;;;;;;;30.23;16.06;98222.91;5057087;28;19924;-80
2023/03/12 09:21:35;;;;;;;;;;;;;;;30.35;17.56;98218.16;5047505;28;19916;-85
2023/03/12 09:24:00;;;;;;;;;;;;;;;30.37;18.27;98225.97;5059609;28;19953;-89
2023/03/12 09:26:26;;;;;;;;;;;;;;;30.26;16.81;98225.91;5050351;28;19931;-82
2023/03/12 09:28:51;;;;;;;;;;;;;;;30.23;16.52;98220.22;5045438;28;20015;-85
2023/03/12 09:31:16;;;;;;;;;;;;;;;30.27;17.82;98218.66;5057517;28;19924;-85
2023/03/12 09:33:42;;;;;;;;;;;;;;;30.16;17.72;98222.31;5057257;28;19916;-83
2023/03/12 09:36:07;;;;;;;;;;;;;;;30.30;17.94;98228.91;5039222;28;19916;-83
2023/03/12 09:38:34;;;;;;;;;;;;;;;30.53;17.86;98216.16;5056443;28;20003;-80
2023/03/12 09:40:59;;;;;;;;;;;;;;;30.64;19.23;98225.91;5058861;28;19924;-86
2023/03/12 09:43:26;;;;;;;;;;;;;;;30.82;18.53;98230.88;5059867;28;19924;-86
2023/03/12 09:45:51;;;;;;;;;;;;;;;30.80;18.68;98229.50;5044225;28;19955;-90
2023/03/12 09:48:19;;;;;;;;;;;;;;;30.88;18.96;98210.13;5064704;28;19916;-88
2023/03/12 09:50:47;;;;;;;;;;;;;;;30.96;19.11;98214.22;5056230;28;19921;-83
2023/03/12 09:53:13;;;;;;;;;;;;;;;30.95;19.60;98218.81;5048362;28;19920;-89
2023/03/12 09:55:39;;;;;;;;;;;;;;;30.90;19.99;98218.78;5089321;28;19919;-82
2023/03/12 09:58:09;;;;;;;;;;;;;;;30.87;19.90;98215.78;5060493;28;19920;-88
2023/03/12 10:00:34;;;;;;;;;;;;;;;30.88;19.30;98226.31;5039197;28;20009;-85
2023/03/12 10:03:06;;;;;;;;;;;;;;;30.81;18.83;98226.53;5067974;28;19916;-84
2023/03/12 10:05:50;;;;;;;;;;;;;;;30.66;18.76;98229.97;5108849;28;19912;-86
2023/03/12 10:08:37;;;;;;;;;;;;;;;30.64;19.37;98229.41;5094742;28;19916;-84
2023/03/12 10:11:08;;;;;;;;;;;;;;;30.65;19.20;98230.22;5083689;28;19916;-85
2023/03/12 10:13:33;;;;;;;;;;;;;;;30.56;20.78;98235.28;5082799;28;19920;-87
2023/03/12 10:16:10;;;;;;;;;;;;;;;30.55;19.26;98240.94;5095778;28;19919;-80
2023/03/12 10:18:57;;;;;;;;;;;;;;;30.22;13.40;98237.44;5061209;28;19959;-84
2023/03/12 10:21:31;;;;;;;;;;;;;;;29.57;13.26;98235.50;5059891;28;19916;-82
2023/03/12 10:24:15;;;;;;;;;;;;;;;29.00;13.23;98241.25;5075384;28;19920;-81
2023/03/12 10:26:45;;;;;;;;;;;;;;;28.81;14.82;98252.31;5072851;28;20374;-81
2023/03/12 10:29:11;;;;;;;;;;;;;;;28.65;14.97;98240.50;5057970;28;19916;-81
2023/03/12 10:31:40;;;;;;;;;;;;;;;28.50;15.15;98242.97;5074909;28;19923;-83
2023/03/12 10:34:14;;;;;;;;;;;;;;;27.83;13.46;98246.38;5075111;28;19916;-80
2023/03/12 10:36:39;;;;;;;;;;;;;;;27.59;13.53;98243.81;5074291;28;19916;-86
2023/03/12 10:39:09;;;;;;;;;;;;;;;27.29;13.03;98244.03;5093077;28;20438;-82
2023/03/12 10:41:34;;;;;;;;;;;;;;;26.45;15.75;98250.50;5074846;28;19924;-82
2023/03/12 10:44:01;;;;;;;;;;;;;;;26.13;17.26;98254.28;5069141;28;19928;-82
2023/03/12 10:46:37;;;;;;;;;;;;;;;26.35;16.14;98248.41;5072789;28;20008;-80
2023/03/12 10:49:35;;;;;;;;;;;;;;;26.39;17.16;98241.50;5056657;28;19958;-78
2023/03/12 10:52:19;;;;;;;;;;;;;;;26.24;18.22;98243.84;5012823;28;20404;-85
2023/03/12 10:54:45;;;;;;;;;;;;;;;26.20;22.12;98248.03;4986232;28;19925;-85
2023/03/12 10:57:10;;;;;;;;;;;;;;;25.88;20.44;98242.94;4974347;28;19925;-84
2023/03/12 10:59:37;;;;;;;;;;;;;;;25.82;18.69;98253.50;4974565;28;19973;-85
2023/03/12 11:02:10;;;;;;;;;;;;;;;25.80;20.15;98255.56;4990576;28;20368;-88
2023/03/12 11:04:35;;;;;;;;;;;;;;;25.61;20.06;98248.66;4975720;28;19976;-83
2023/03/12 11:07:26;;;;;;;;;;;;;;;25.73;26.94;98246.84;4958938;28;19921;-80
2023/03/12 11:10:06;;;;;;;;;;;;;;;25.90;23.10;98248.84;4952137;29;20323;-82
2023/03/12 11:12:33;;;;;;;;;;;;;;;26.12;20.15;98249.97;4956792;28;19914;-79
2023/03/12 11:15:00;;;;;;;;;;;;;;;26.11;18.19;98253.72;4972091;28;19940;-79
2023/03/12 11:17:27;;;;;;;;;;;;;;;26.07;17.37;98243.69;4955731;28;19914;-80
2023/03/12 11:19:52;;;;;;;;;;;;;;;25.89;17.26;98236.53;4968830;28;19925;-81
2023/03/12 11:22:43;;;;;;;;;;;;;;;25.59;17.25;98235.50;4939263;28;20309;-79
2023/03/12 11:25:18;;;;;;;;;;;;;;;25.46;18.75;98241.84;4972907;28;19933;-84
2023/03/12 11:27:43;;;;;;;;;;;;;;;25.46;18.46;98249.88;5005507;28;19917;-84
2023/03/12 11:30:16;;;;;;;;;;;;;;;25.45;18.48;98242.88;5018536;28;19924;-83
2023/03/12 11:32:45;;;;;;;;;;;;;;;25.24;18.94;98243.34;5000726;28;19913;-82
2023/03/12 11:35:11;;;;;;;;;;;;;;;25.01;17.98;98238.66;5032803;28;19920;-84
2023/03/12 11:37:55;;;;;;;;;;;;;;;24.61;18.25;98242.56;5020267;28;19913;-83
2023/03/12 11:40:29;;;;;;;;;;;;;;;24.33;19.54;98251.81;5049900;28;19923;-85
2023/03/12 11:43:11;;;;;;;;;;;;;;;24.03;20.98;98238.28;5096216;28;19923;-79
2023/03/12 11:45:36;;;;;;;;;;;;;;;23.76;21.59;98251.75;5093507;28;20300;-82
2023/03/12 11:48:05;;;;;;;;;;;;;;;23.60;26.40;98250.41;5093968;28;19965;-83
2023/03/12 11:50:36;;;;;;;;;;;;;;;23.44;26.29;98256.25;5093010;28;19916;-80
2023/03/12 11:53:19;;;;;;;;;;;;;;;23.28;27.00;98252.22;5074533;28;19912;-78
2023/03/12 11:55:57;;;;;;;;;;;;;;;23.10;27.84;98251.06;5073877;28;19927;-80
2023/03/12 11:58:32;;;;;;;;;;;;;;;22.97;27.26;98252.91;5092291;28;19942;-80
2023/03/12 12:01:10;;;;;;;;;;;;;;;22.83;27.04;98244.13;5091897;28;19916;-80
2023/03/12 12:04:04;;;;;;;;;;;;;;;22.71;28.27;98252.75;5074205;28;19912;-80
2023/03/12 12:06:30;;;;;;;;;;;;;;;22.61;27.51;98262.16;5032558;28;20036;-84
2023/03/12 12:09:07;;;;;;;;;;;;;;;22.45;26.14;98269.53;5031990;28;20004;-89
2023/03/12 12:11:39;;;;;;;;;;;;;;;22.34;24.95;98259.53;5002210;28;19924;-89
2023/03/12 12:14:14;;;;;;;;;;;;;;;22.17;24.39;98278.50;5013411;28;20004;-81
2023/03/12 12:16:45;;;;;;;;;;;;;;;21.94;23.04;98273.56;5029402;28;19929;-80
2023/03/12 12:19:17;;;;;;;;;;;;;;;21.77;24.14;98270.44;5010503;28;19917;-79
2023/03/12 12:21:56;;;;;;;;;;;;;;;21.70;23.96;98277.59;5013741;28;20446;-82
2023/03/12 12:24:37;;;;;;;;;;;;;;;21.62;22.76;98272.47;5029420;28;19925;-82
2023/03/12 12:27:21;;;;;;;;;;;;;;;21.52;21.96;98282.63;5012980;28;19925;-81
2023/03/12 12:30:04;;;;;;;;;;;;;;;21.39;21.74;98283.38;5012193;28;20410;-83
2023/03/12 12:32:52;;;;;;;;;;;;;;;21.23;22.04;98277.38;5030067;28;20040;-83
2023/03/12 12:35:35;;;;;;;;;;;;;;;21.28;28.17;98290.06;4993287;28;20417;-87
2023/03/12 12:38:02;;;;;;;;;;;;;;;21.44;27.59;98297.72;5017253;28;19999;-81
2023/03/12 12:40:36;;;;;;;;;;;;;;;21.73;26.03;98295.78;5018203;28;20425;-83
2023/03/12 12:43:08;;;;;;;;;;;;;;;21.78;26.68;98290.69;5039323;28;19928;-77
2023/03/12 12:45:34;;;;;;;;;;;;;;;21.80;27.91;98290.50;5049939;28;19924;-79
2023/03/12 12:48:06;;;;;;;;;;;;;;;21.72;28.13;98310.09;5049962;28;19917;-80